createdAt,value
2023-01-15T00:05:03.565Z,24.40
2023-01-15T00:10:13.011Z,26.00
2023-01-15T00:15:18.649Z,25.30
2023-01-15T00:20:24.420Z,25.20
2023-01-15T00:25:48.974Z,23.90
2023-01-15T00:30:54.901Z,23.60
2023-01-15T00:36:00.830Z,20.50
2023-01-15T00:41:07.353Z,23.30
2023-01-15T00:46:14.313Z,24.20
2023-01-15T00:51:20.260Z,22.80
2023-01-15T00:56:26.112Z,21.40
2023-01-15T01:01:32.239Z,18.20
2023-01-15T01:06:38.379Z,21.00
2023-01-15T01:11:44.487Z,16.80
2023-01-15T01:16:50.322Z,20.30
2023-01-15T01:21:56.030Z,18.80
2023-01-15T01:27:01.740Z,17.00
2023-01-15T01:32:07.756Z,15.20
2023-01-15T01:37:13.905Z,19.10
2023-01-15T01:42:20.148Z,18.40
2023-01-15T01:47:29.335Z,18.40
2023-01-15T01:52:41.332Z,16.00
2023-01-15T01:57:50.664Z,14.90
2023-01-15T02:02:57.452Z,16.10
2023-01-15T02:08:03.913Z,13.70
2023-01-15T02:13:16.065Z,15.00
2023-01-15T02:18:29.632Z,15.20
2023-01-15T02:24:03.124Z,12.30
2023-01-15T02:29:14.092Z,16.10
2023-01-15T02:34:24.086Z,16.80
2023-01-15T02:39:32.323Z,16.40
2023-01-15T02:44:41.676Z,17.60
2023-01-15T02:49:50.075Z,17.30
2023-01-15T02:55:04.191Z,16.20
2023-01-15T03:00:15.193Z,17.60
2023-01-15T03:05:26.941Z,15.60
2023-01-15T03:10:40.067Z,21.80
2023-01-15T03:16:12.013Z,16.30
2023-01-15T03:21:23.005Z,19.30
2023-01-15T03:26:34.123Z,18.70
2023-01-15T03:31:40.729Z,18.60
2023-01-15T03:36:46.621Z,18.10
2023-01-15T03:42:03.210Z,18.90
2023-01-15T03:47:17.350Z,19.70
2023-01-15T03:52:30.844Z,15.30
2023-01-15T03:57:41.309Z,17.20
2023-01-15T04:02:49.465Z,16.10
2023-01-15T04:07:59.076Z,16.10
2023-01-15T04:13:07.830Z,14.20
2023-01-15T04:18:14.419Z,15.80
2023-01-15T04:23:20.884Z,15.20
2023-01-15T04:28:27.204Z,13.20
2023-01-15T04:33:33.213Z,13.40
2023-01-15T04:38:39.570Z,13.70
2023-01-15T04:44:04.207Z,13.40
2023-01-15T04:49:13.189Z,12.60
2023-01-15T04:54:19.870Z,10.70
2023-01-15T04:59:27.461Z,11.10
2023-01-15T05:04:33.866Z,9.80
2023-01-15T05:09:39.894Z,9.40
2023-01-15T05:14:45.575Z,11.10
2023-01-15T05:19:51.618Z,10.10
2023-01-15T05:24:57.348Z,11.10
2023-01-15T05:30:03.029Z,8.30
2023-01-15T05:35:10.171Z,10.10
2023-01-15T05:40:16.519Z,9.30
2023-01-15T05:45:22.390Z,9.10
2023-01-15T05:50:29.083Z,6.90
2023-01-15T05:55:35.179Z,7.40
2023-01-15T06:00:40.920Z,10.50
2023-01-15T06:05:51.997Z,8.20
2023-01-15T06:10:57.977Z,7.90
2023-01-15T06:16:04.008Z,7.10
2023-01-15T06:21:11.981Z,9.10
2023-01-15T06:26:19.035Z,7.50
2023-01-15T06:31:27.035Z,5.70
2023-01-15T06:36:33.560Z,7.70
2023-01-15T06:41:58.663Z,7.50
2023-01-15T06:47:21.185Z,6.70
2023-01-15T06:52:29.619Z,5.80
2023-01-15T06:57:37.879Z,6.80
2023-01-15T07:02:43.711Z,6.60
2023-01-15T07:07:49.635Z,5.40
2023-01-15T07:12:55.417Z,7.40
2023-01-15T07:18:02.503Z,17.50
2023-01-15T07:23:08.280Z,9.50
2023-01-15T07:28:13.930Z,9.10
2023-01-15T07:33:19.978Z,8.60
2023-01-15T07:38:28.079Z,5.70
2023-01-15T07:43:52.460Z,9.20
2023-01-15T07:49:16.899Z,7.00
2023-01-15T07:54:22.788Z,6.20
2023-01-15T07:59:28.587Z,6.10
2023-01-15T08:04:34.496Z,8.50
2023-01-15T08:09:40.286Z,6.00
2023-01-15T08:15:05.179Z,6.10
2023-01-15T08:20:14.090Z,34.50
2023-01-15T08:25:22.512Z,6.30
2023-01-15T08:30:28.571Z,10.90
2023-01-15T08:35:34.623Z,12.60
2023-01-15T08:40:58.534Z,7.10
2023-01-15T08:46:07.029Z,8.00
2023-01-15T08:51:13.426Z,9.00
2023-01-15T08:56:20.764Z,10.70
2023-01-15T09:01:26.547Z,9.20
2023-01-15T09:06:32.541Z,8.10
2023-01-15T09:11:41.618Z,11.30
2023-01-15T09:16:47.327Z,18.70
2023-01-15T09:21:53.036Z,10.40
2023-01-15T09:26:58.932Z,8.60
2023-01-15T09:32:07.995Z,12.60
2023-01-15T09:37:13.978Z,11.80
2023-01-15T09:42:33.475Z,8.30
2023-01-15T09:47:47.021Z,9.60
2023-01-15T09:53:10.773Z,7.80
2023-01-15T09:58:20.056Z,7.30
2023-01-15T10:03:40.021Z,9.00
2023-01-15T10:08:47.866Z,8.70
2023-01-15T10:14:00.387Z,8.00
2023-01-15T10:19:08.985Z,8.10
2023-01-15T10:24:24.677Z,10.30
2023-01-15T10:29:36.495Z,8.60
2023-01-15T10:35:09.188Z,10.00
2023-01-15T10:40:39.101Z,8.60
2023-01-15T10:45:50.904Z,9.40
2023-01-15T10:51:00.594Z,10.60
2023-01-15T10:56:15.208Z,8.30
2023-01-15T11:01:25.238Z,10.60
2023-01-15T11:06:33.074Z,11.20
2023-01-15T11:11:59.305Z,12.00
2023-01-15T11:17:30.841Z,10.20
2023-01-15T11:22:40.236Z,9.70
2023-01-15T11:27:51.318Z,10.30
2023-01-15T11:33:01.230Z,9.70
2023-01-15T11:38:14.183Z,10.30
2023-01-15T11:43:43.939Z,12.30
2023-01-15T11:49:09.123Z,11.80
2023-01-15T11:54:16.953Z,11.00
2023-01-15T11:59:23.328Z,13.20
2023-01-15T12:04:34.892Z,10.90
2023-01-15T12:10:01.384Z,11.60
2023-01-15T12:15:22.167Z,12.10
2023-01-15T12:20:39.082Z,20.40
2023-01-15T12:25:56.335Z,13.90
2023-01-15T12:31:06.832Z,13.40
2023-01-15T12:36:19.171Z,12.90
2023-01-15T12:41:50.576Z,18.60
2023-01-15T12:46:56.670Z,14.70
2023-01-15T12:52:07.559Z,17.20
2023-01-15T12:57:19.271Z,16.50
2023-01-15T13:02:35.567Z,27.50
2023-01-15T13:07:46.027Z,14.60
2023-01-15T13:12:53.592Z,14.20
2023-01-15T13:18:05.267Z,18.00
2023-01-15T13:23:27.966Z,15.00
2023-01-15T13:28:44.990Z,16.00
2023-01-15T13:33:54.382Z,15.90
2023-01-15T13:39:03.644Z,14.50
2023-01-15T13:44:18.758Z,17.70
2023-01-15T13:49:30.686Z,21.20
2023-01-15T13:54:41.677Z,14.80
2023-01-15T13:59:48.713Z,15.80
2023-01-15T14:04:54.861Z,19.00
2023-01-15T14:10:23.576Z,20.40
2023-01-15T14:15:41.911Z,16.20
2023-01-15T14:20:59.647Z,21.50
2023-01-15T14:26:18.937Z,20.40
2023-01-15T14:31:46.981Z,19.60
2023-01-15T14:36:59.525Z,28.90
2023-01-15T14:42:30.060Z,21.90
2023-01-15T14:47:46.146Z,25.30
2023-01-15T14:52:53.775Z,20.80
2023-01-15T14:58:03.361Z,24.50
2023-01-15T15:03:20.030Z,13.40
2023-01-15T15:08:35.037Z,17.60
2023-01-15T15:13:47.312Z,14.40
2023-01-15T15:19:01.698Z,13.80
2023-01-15T15:24:16.868Z,16.10
2023-01-15T15:29:23.354Z,17.90
2023-01-15T15:34:34.075Z,19.80
2023-01-15T15:39:47.471Z,26.60
2023-01-15T15:45:14.901Z,27.10
2023-01-15T15:50:26.165Z,25.00
2023-01-15T15:55:39.351Z,22.80
2023-01-15T16:00:46.646Z,22.50
2023-01-15T16:06:01.047Z,33.40
2023-01-15T16:11:12.308Z,16.90
2023-01-15T16:16:19.695Z,14.80
2023-01-15T16:21:30.658Z,14.80
2023-01-15T16:26:38.241Z,17.20
2023-01-15T16:31:44.254Z,12.70
2023-01-15T16:36:50.156Z,14.30
2023-01-15T16:41:59.681Z,13.00
2023-01-15T16:47:06.795Z,10.80
2023-01-15T16:52:50.296Z,11.70
2023-01-15T16:58:17.356Z,12.20
2023-01-15T17:03:26.452Z,13.20
2023-01-15T17:08:39.250Z,15.20
2023-01-15T17:13:45.172Z,11.00
2023-01-15T17:18:52.151Z,16.20
2023-01-15T17:24:00.049Z,15.20
2023-01-15T17:29:06.257Z,15.30
2023-01-15T17:34:12.028Z,14.30
2023-01-15T17:39:20.336Z,11.60
2023-01-15T17:44:26.143Z,13.70
2023-01-15T17:49:32.047Z,12.50
2023-01-15T17:54:56.032Z,13.50
2023-01-15T18:00:20.873Z,14.30
2023-01-15T18:05:30.754Z,16.30
2023-01-15T18:10:36.670Z,14.80
2023-01-15T18:15:42.777Z,14.90
2023-01-15T18:20:48.444Z,15.40
2023-01-15T18:25:54.757Z,15.40
2023-01-15T18:31:00.842Z,14.10
2023-01-15T18:36:10.934Z,16.70
2023-01-15T18:41:37.049Z,18.10
2023-01-15T18:46:46.210Z,17.50
2023-01-15T18:52:12.097Z,15.20
2023-01-15T18:57:18.075Z,12.90
2023-01-15T19:02:24.786Z,15.00
2023-01-15T19:07:30.721Z,9.90
2023-01-15T19:12:37.353Z,13.20
2023-01-15T19:18:01.485Z,12.20
2023-01-15T19:23:07.401Z,8.60
2023-01-15T19:28:15.899Z,6.20
2023-01-15T19:33:21.534Z,4.80
2023-01-15T19:38:27.294Z,7.20
2023-01-15T19:43:52.354Z,5.80
2023-01-15T19:49:16.569Z,6.80
2023-01-15T19:54:42.618Z,7.10
2023-01-15T19:59:50.606Z,7.90
2023-01-15T20:04:56.442Z,8.20
2023-01-15T20:10:02.434Z,11.40
2023-01-15T20:15:09.639Z,8.00
2023-01-15T20:20:15.670Z,8.60
2023-01-15T20:25:21.480Z,5.80
2023-01-15T20:30:28.163Z,6.50
2023-01-15T20:35:34.134Z,5.70
2023-01-15T20:40:39.922Z,8.10
2023-01-15T20:45:45.786Z,8.50
2023-01-15T20:51:00.938Z,10.00
2023-01-15T20:56:15.603Z,7.70
2023-01-15T21:01:21.484Z,9.40
2023-01-15T21:06:29.840Z,10.10
2023-01-15T21:11:35.807Z,8.60
2023-01-15T21:16:41.579Z,9.60
2023-01-15T21:21:47.334Z,9.60
2023-01-15T21:26:53.189Z,10.30
2023-01-15T21:31:59.266Z,9.90
2023-01-15T21:37:04.913Z,10.80
2023-01-15T21:42:33.155Z,12.20
2023-01-15T21:47:41.374Z,11.10
2023-01-15T21:52:50.203Z,9.30
2023-01-15T21:57:56.020Z,9.20
2023-01-15T22:03:02.016Z,8.30
2023-01-15T22:08:08.583Z,7.40
2023-01-15T22:13:14.415Z,7.70
2023-01-15T22:18:20.143Z,8.60
2023-01-15T22:23:26.460Z,7.80
2023-01-15T22:28:32.083Z,8.60
2023-01-15T22:33:38.053Z,7.70
2023-01-15T22:38:43.863Z,8.70
2023-01-15T22:43:49.635Z,7.20
2023-01-15T22:48:55.320Z,8.00
2023-01-15T22:54:01.245Z,8.30
2023-01-15T22:59:07.957Z,6.30
2023-01-15T23:04:17.695Z,7.60
2023-01-15T23:09:26.410Z,10.00
2023-01-15T23:14:32.389Z,9.90
2023-01-15T23:19:38.638Z,10.40
2023-01-15T23:24:44.388Z,9.80
2023-01-15T23:29:50.072Z,8.10
2023-01-15T23:34:56.102Z,8.40
2023-01-15T23:40:01.797Z,9.40
2023-01-15T23:45:28.768Z,7.50
2023-01-15T23:50:34.806Z,6.70
2023-01-15T23:55:40.581Z,7.70
